Time;durP1;ratioP1;P1;durP2;ratioP2;P2;SDS_P1;SDS_P2;PMS_P1;PMS_P2;Temp;Humidity;BMP_temperature;BMP_pressure;BME280_temperature;BME280_humidity;BME280_pressure;Samples;Min_cycle;Max_cycle;Signal;HPM_P1;HPM_P2
2023/10/01 00:01:02;;;;;;;3.53;1.55;;;15.40;11.90;;;;;;5058233;28;20060;-73
2023/10/01 00:03:29;;;;;;;2.70;1.52;;;15.40;95.50;;;;;;5057722;28;20071;-74
2023/10/01 00:05:56;;;;;;;2.97;1.70;;;15.40;99.90;;;;;;5042641;28;20436;-77
2023/10/01 00:08:23;;;;;;;2.28;1.30;;;15.40;99.90;;;;;;5040370;28;20049;-73
2023/10/01 00:10:50;;;;;;;2.30;1.40;;;15.30;99.90;;;;;;5042717;28;20569;-74
2023/10/01 00:13:16;;;;;;;2.05;1.25;;;15.40;99.90;;;;;;5042489;28;20088;-74
2023/10/01 00:15:43;;;;;;;2.80;1.40;;;15.40;99.90;;;;;;5057654;28;20123;-75
2023/10/01 00:18:10;;;;;;;3.15;1.58;;;15.40;99.90;;;;;;5040311;28;20052;-73
2023/10/01 00:20:38;;;;;;;3.10;1.42;;;15.30;99.90;;;;;;5042894;28;20057;-74
2023/10/01 00:23:05;;;;;;;2.33;1.30;;;15.30;99.90;;;;;;5056966;28;20117;-73
2023/10/01 00:25:34;;;;;;;3.25;1.65;;;15.30;99.90;;;;;;5029757;28;20056;-72
2023/10/01 00:28:04;;;;;;;2.05;1.13;;;15.30;99.90;;;;;;5025563;28;20045;-75
2023/10/01 00:30:31;;;;;;;2.03;1.20;;;15.30;99.90;;;;;;5023880;28;20053;-74
2023/10/01 00:33:06;;;;;;;3.60;1.50;;;15.30;1.00;;;;;;5033632;28;20069;-74
2023/10/01 00:35:38;;;;;;;1.88;1.27;;;15.30;1.00;;;;;;5032900;28;20540;-74
2023/10/01 00:38:05;;;;;;;1.98;1.20;;;15.30;1.00;;;;;;5053298;28;20477;-74
2023/10/01 00:40:32;;;;;;;3.20;1.48;;;15.30;1.00;;;;;;5023560;28;20061;-74
2023/10/01 00:43:00;;;;;;;2.05;1.45;;;15.30;65.80;;;;;;5041227;28;20107;-74
2023/10/01 00:45:27;;;;;;;2.53;1.27;;;15.30;99.90;;;;;;5040046;28;20443;-74
2023/10/01 00:47:54;;;;;;;2.40;1.33;;;15.20;99.90;;;;;;5052743;28;20141;-75
2023/10/01 00:50:21;;;;;;;2.40;1.33;;;15.30;99.90;;;;;;5021774;28;20076;-75
2023/10/01 00:52:49;;;;;;;1.77;1.17;;;15.30;99.90;;;;;;5034658;28;20068;-74
2023/10/01 00:55:17;;;;;;;2.85;1.65;;;15.30;99.90;;;;;;5039805;28;20103;-75
2023/10/01 00:57:44;;;;;;;2.55;1.50;;;15.30;99.90;;;;;;5039005;28;20049;-74
2023/10/01 01:00:15;;;;;;;2.80;1.45;;;15.30;99.90;;;;;;5041361;28;20337;-75
2023/10/01 01:02:56;;;;;;;2.75;1.42;;;15.30;99.90;;;;;;5025253;28;20123;-74
2023/10/01 01:05:34;;;;;;;2.38;1.30;;;15.30;99.90;;;;;;5028741;28;20053;-74
2023/10/01 01:08:33;;;;;;;2.28;1.35;;;15.20;99.90;;;;;;5048817;28;20131;-73
2023/10/01 01:11:01;;;;;;;2.63;1.48;;;15.20;99.90;;;;;;5052560;28;20041;-74
2023/10/01 01:13:29;;;;;;;1.95;1.35;;;15.20;99.90;;;;;;5045016;28;20655;-74
2023/10/01 01:15:57;;;;;;;2.10;1.38;;;15.20;99.90;;;;;;5039294;28;20169;-74
2023/10/01 01:18:26;;;;;;;3.15;1.65;;;15.20;1.00;;;;;;5036254;28;20175;-74
2023/10/01 01:21:15;;;;;;;3.75;1.60;;;15.20;1.00;;;;;;5038307;28;20053;-74
2023/10/01 01:23:46;;;;;;;2.22;1.30;;;15.20;1.00;;;;;;5041916;28;20057;-75
2023/10/01 01:26:13;;;;;;;2.38;1.30;;;15.20;1.00;;;;;;5056275;28;20265;-74
2023/10/01 01:28:41;;;;;;;1.98;1.30;;;15.20;99.90;;;;;;5047960;28;20061;-74
2023/10/01 01:31:10;;;;;;;2.47;1.55;;;15.10;99.90;;;;;;5022976;28;20060;-73
2023/10/01 01:33:40;;;;;;;2.42;1.40;;;15.20;1.00;;;;;;5036939;28;20121;-76
2023/10/01 01:36:12;;;;;;;3.83;1.67;;;15.20;1.00;;;;;;5006966;28;20160;-73
2023/10/01 01:38:48;;;;;;;3.30;1.65;;;15.20;1.00;;;;;;5018209;28;20083;-75
2023/10/01 01:41:19;;;;;;;2.30;1.33;;;15.20;1.00;;;;;;5012987;28;20057;-74
2023/10/01 01:43:49;;;;;;;2.30;1.40;;;15.20;1.00;;;;;;5057157;28;20132;-75
2023/10/01 01:46:18;;;;;;;2.63;1.65;;;15.20;1.00;;;;;;5048016;28;20138;-73
2023/10/01 01:48:51;;;;;;;2.47;1.40;;;15.20;1.00;;;;;;5021059;28;20046;-74
2023/10/01 01:51:20;;;;;;;2.25;1.30;;;15.10;1.00;;;;;;5030309;28;20139;-74
2023/10/01 01:53:50;;;;;;;3.35;1.80;;;15.10;1.00;;;;;;5034640;28;20045;-74
2023/10/01 01:56:18;;;;;;;3.28;1.55;;;15.10;1.00;;;;;;5026434;28;20049;-74
2023/10/01 01:58:47;;;;;;;3.78;1.73;;;15.10;99.90;;;;;;5029338;28;20048;-74
2023/10/01 02:03:46;;;;;;;2.53;1.45;;;15.20;99.90;;;;;;5025085;28;20050;-74
2023/10/01 02:06:14;;;;;;;2.65;1.35;;;15.20;99.90;;;;;;5010112;28;20053;-74
2023/10/01 02:08:49;;;;;;;3.65;1.60;;;15.30;99.90;;;;;;5026558;28;20369;-74
2023/10/01 02:11:18;;;;;;;3.42;1.83;;;15.30;99.90;;;;;;5031499;28;20057;-73
2023/10/01 02:13:51;;;;;;;2.47;1.48;;;15.20;99.90;;;;;;5047921;28;20049;-75
2023/10/01 02:16:18;;;;;;;3.38;1.88;;;15.20;99.90;;;;;;5047746;28;20194;-74
2023/10/01 02:18:56;;;;;;;2.50;1.50;;;15.20;99.90;;;;;;5018003;28;20064;-73
2023/10/01 02:24:22;;;;;;;2.25;1.60;;;15.20;99.90;;;;;;5038832;28;20049;-74
2023/10/01 02:26:59;;;;;;;2.85;1.92;;;15.20;1.00;;;;;;5037379;28;20060;-73
2023/10/01 02:29:31;;;;;;;3.53;1.75;;;15.30;1.00;;;;;;5036130;28;20050;-73
2023/10/01 02:32:04;;;;;;;2.67;1.77;;;15.30;99.90;;;;;;5004720;28;20053;-76
2023/10/01 02:34:31;;;;;;;2.97;1.70;;;15.30;99.90;;;;;;5021847;28;20068;-74
2023/10/01 02:36:58;;;;;;;2.83;1.80;;;15.40;99.90;;;;;;5057077;28;20222;-74
2023/10/01 02:39:28;;;;;;;3.15;1.83;;;15.40;99.90;;;;;;5055396;28;20192;-74
2023/10/01 02:44:47;;;;;;;2.40;1.48;;;15.50;99.90;;;;;;5054793;28;20119;-74
2023/10/01 02:47:18;;;;;;;2.65;1.58;;;15.60;99.90;;;;;;5024784;28;20403;-74
2023/10/01 02:49:49;;;;;;;2.70;1.75;;;15.60;99.90;;;;;;5040956;28;20053;-73
2023/10/01 02:52:17;;;;;;;3.47;1.88;;;15.60;99.90;;;;;;5040173;28;20041;-74
2023/10/01 02:54:47;;;;;;;2.35;1.40;;;15.70;99.90;;;;;;5038846;28;20249;-74
2023/10/01 02:57:23;;;;;;;3.25;1.60;;;15.70;99.90;;;;;;5055461;28;20536;-74
2023/10/01 03:02:41;;;;;;;3.65;2.05;;;15.70;1.00;;;;;;5054252;28;20075;-74
2023/10/01 03:07:56;;;;;;;2.92;1.50;;;15.80;1.00;;;;;;5052316;28;20063;-74
2023/10/01 03:10:26;;;;;;;2.80;1.35;;;15.80;1.00;;;;;;5038969;28;20048;-74
2023/10/01 03:12:55;;;;;;;3.42;1.77;;;15.80;1.00;;;;;;5041646;28;20118;-74
2023/10/01 03:15:27;;;;;;;3.13;1.40;;;15.80;1.00;;;;;;5056022;28;20528;-73
2023/10/01 03:17:58;;;;;;;2.28;1.30;;;15.80;1.00;;;;;;5056812;28;20060;-73
2023/10/01 03:23:27;;;;;;;1.63;1.20;;;15.80;1.00;;;;;;5054783;28;20045;-73
2023/10/01 03:26:00;;;;;;;2.83;1.60;;;15.80;1.00;;;;;;5053879;28;20359;-74
2023/10/01 03:28:31;;;;;;;2.43;1.53;;;15.70;1.00;;;;;;5039394;28;20164;-74
2023/10/01 03:31:08;;;;;;;2.72;1.40;;;15.70;1.00;;;;;;5038988;28;20340;-74
2023/10/01 03:33:39;;;;;;;2.95;1.60;;;15.70;1.00;;;;;;5023193;28;20041;-74
2023/10/01 03:36:09;;;;;;;2.60;1.25;;;15.70;99.90;;;;;;5041615;28;20049;-74
2023/10/01 03:38:44;;;;;;;3.35;2.15;;;15.70;99.90;;;;;;5056881;28;20056;-74
2023/10/01 03:41:21;;;;;;;2.10;1.23;;;15.70;99.90;;;;;;5058189;28;20064;-74
2023/10/01 03:43:50;;;;;;;3.13;1.67;;;15.70;99.90;;;;;;5036453;28;20152;-74
2023/10/01 03:46:26;;;;;;;3.85;1.88;;;15.60;1.00;;;;;;4990585;28;20498;-74
2023/10/01 03:51:52;;;;;;;3.42;1.90;;;15.70;99.90;;;;;;5007424;28;20052;-74
2023/10/01 03:54:26;;;;;;;1.65;0.88;;;15.60;99.90;;;;;;5034819;28;20041;-74
2023/10/01 03:56:56;;;;;;;2.75;1.40;;;15.70;99.90;;;;;;5036882;28;20059;-75
2023/10/01 03:59:27;;;;;;;2.30;1.25;;;15.60;99.90;;;;;;5030285;28;20336;-73
2023/10/01 04:02:02;;;;;;;1.90;1.10;;;15.60;99.90;;;;;;5038194;28;20059;-73
2023/10/01 04:05:21;;;;;;;2.35;1.55;;;15.60;10.70;;;;;;4998168;28;20240;-73
2023/10/01 04:07:18;;;;;;;1.95;1.27;;;15.70;46.10;;;;;;5013966;28;20041;-74
2023/10/01 04:09:47;;;;;;;2.35;1.40;;;15.70;34.80;;;;;;5057148;28;20132;-74
2023/10/01 04:12:27;;;;;;;2.63;1.40;;;15.70;1.00;;;;;;5039324;28;20109;-73
2023/10/01 04:15:01;;;;;;;2.78;1.80;;;15.70;99.90;;;;;;5024747;28;20052;-73
2023/10/01 04:17:28;;;;;;;2.67;1.20;;;15.70;99.90;;;;;;5055890;28;20045;-74
2023/10/01 04:20:00;;;;;;;2.70;1.50;;;15.70;99.90;;;;;;5040035;28;20073;-74
2023/10/01 04:22:29;;;;;;;1.88;1.25;;;15.70;99.90;;;;;;5056985;28;20128;-74
2023/10/01 04:25:12;;;;;;;2.53;1.45;;;15.70;99.90;;;;;;5024972;28;20051;-74
2023/10/01 04:27:42;;;;;;;2.75;1.40;;;15.70;99.90;;;;;;5041562;28;20045;-73
2023/10/01 04:30:10;;;;;;;2.30;1.30;;;15.70;99.90;;;;;;5048250;28;20107;-75
2023/10/01 04:32:37;;;;;;;2.28;1.40;;;15.70;99.90;;;;;;5057986;28;20148;-74
2023/10/01 04:35:14;;;;;;;1.98;1.40;;;15.60;99.90;;;;;;5044667;28;20059;-74
2023/10/01 04:37:47;;;;;;;2.65;1.33;;;15.60;99.90;;;;;;5045042;28;20049;-74
2023/10/01 04:40:33;;;;;;;2.45;1.40;;;15.60;99.90;;;;;;5024541;28;20045;-75
2023/10/01 04:43:08;;;;;;;2.42;1.23;;;15.60;99.90;;;;;;5040949;28;20060;-74
2023/10/01 04:45:40;;;;;;;2.47;1.13;;;15.50;99.90;;;;;;5043885;28;20044;-74
2023/10/01 04:48:24;;;;;;;3.00;1.45;;;15.60;1.00;;;;;;5045187;28;20413;-75
2023/10/01 04:50:55;;;;;;;2.83;1.80;;;15.60;1.00;;;;;;5040664;28;20125;-74
2023/10/01 04:53:23;;;;;;;2.42;1.42;;;15.60;1.00;;;;;;5043794;28;20071;-75
2023/10/01 04:56:05;;;;;;;1.75;1.10;;;15.60;1.00;;;;;;5060424;28;20418;-75
2023/10/01 04:58:36;;;;;;;2.45;1.30;;;15.60;47.40;;;;;;5042826;28;20049;-74
2023/10/01 05:01:05;;;;;;;3.65;1.40;;;15.60;69.60;;;;;;5059483;28;20053;-74
2023/10/01 05:03:44;;;;;;;2.38;1.35;;;15.60;93.10;;;;;;5057207;28;20079;-73
2023/10/01 05:06:13;;;;;;;2.95;1.60;;;15.60;99.90;;;;;;5043026;28;20048;-74
2023/10/01 05:08:40;;;;;;;2.03;1.13;;;15.50;99.90;;;;;;5056652;28;20048;-74
2023/10/01 05:11:11;;;;;;;2.35;1.38;;;15.50;99.90;;;;;;5041958;28;20099;-74
2023/10/01 05:13:41;;;;;;;1.95;1.13;;;15.60;99.90;;;;;;5053985;28;20134;-74
2023/10/01 05:16:12;;;;;;;2.53;1.65;;;15.60;99.90;;;;;;5054205;28;20048;-74
2023/10/01 05:18:42;;;;;;;3.13;2.00;;;15.60;1.00;;;;;;5056739;28;20395;-74
2023/10/01 05:21:18;;;;;;;2.40;1.38;;;15.60;1.00;;;;;;5057768;28;20084;-75
2023/10/01 05:23:47;;;;;;;2.20;1.20;;;15.60;1.00;;;;;;5049020;28;20041;-74
2023/10/01 05:26:20;;;;;;;2.45;1.52;;;15.70;1.00;;;;;;5049114;28;20065;-75
2023/10/01 05:28:48;;;;;;;2.20;1.20;;;15.70;99.90;;;;;;5033267;28;20052;-75
2023/10/01 05:31:15;;;;;;;2.47;1.40;;;15.70;99.90;;;;;;5042218;28;20315;-74
2023/10/01 05:33:46;;;;;;;2.70;1.60;;;15.80;99.90;;;;;;5039290;28;20407;-74
2023/10/01 05:36:16;;;;;;;2.03;1.10;;;15.70;99.90;;;;;;5056679;28;20080;-75
2023/10/01 05:38:44;;;;;;;1.92;1.27;;;15.80;99.90;;;;;;5053155;28;20572;-74
2023/10/01 05:41:15;;;;;;;2.47;1.35;;;15.80;99.90;;;;;;5038670;28;20669;-74
2023/10/01 05:43:43;;;;;;;3.00;1.85;;;15.80;99.90;;;;;;5050319;28;20041;-74
2023/10/01 05:46:10;;;;;;;2.55;1.50;;;15.80;99.90;;;;;;5042262;28;20110;-74
2023/10/01 05:48:43;;;;;;;3.45;1.90;;;15.90;99.90;;;;;;5041380;28;20045;-74
2023/10/01 05:51:19;;;;;;;2.22;1.50;;;15.90;99.90;;;;;;5040439;28;20056;-74
2023/10/01 05:53:48;;;;;;;3.20;1.77;;;15.90;99.90;;;;;;5053765;28;20513;-75
2023/10/01 05:56:19;;;;;;;2.65;1.60;;;16.00;99.90;;;;;;5042179;28;20041;-74
2023/10/01 05:58:47;;;;;;;2.55;1.67;;;16.10;99.90;;;;;;5039854;28;20110;-74
2023/10/01 06:01:14;;;;;;;2.90;1.60;;;16.10;99.90;;;;;;5056472;28;20222;-74
2023/10/01 06:03:42;;;;;;;1.77;1.10;;;16.20;99.90;;;;;;5056378;28;20047;-74
2023/10/01 06:06:24;;;;;;;1.92;1.33;;;16.20;99.90;;;;;;5039902;28;20132;-74
2023/10/01 06:09:00;;;;;;;2.10;1.30;;;16.30;99.90;;;;;;5022132;28;20134;-74
2023/10/01 06:11:38;;;;;;;1.80;1.20;;;16.30;99.90;;;;;;5021762;28;20471;-74
2023/10/01 06:14:06;;;;;;;2.20;1.20;;;16.40;99.90;;;;;;5036607;28;20071;-74
2023/10/01 06:16:38;;;;;;;2.05;1.23;;;16.40;99.90;;;;;;5040276;28;20099;-74
2023/10/01 06:19:11;;;;;;;1.63;1.02;;;16.50;99.90;;;;;;5040113;28;20079;-74
2023/10/01 06:21:41;;;;;;;1.63;0.98;;;16.50;99.90;;;;;;5041119;28;20049;-74
2023/10/01 06:24:10;;;;;;;0.82;0.73;;;16.60;99.90;;;;;;5037269;28;20046;-74
2023/10/01 06:26:42;;;;;;;1.40;0.90;;;16.60;99.90;;;;;;5044274;28;20076;-74
2023/10/01 06:29:13;;;;;;;2.65;1.15;;;16.70;99.90;;;;;;5037257;28;20065;-74
2023/10/01 06:34:32;;;;;;;1.98;0.98;;;16.80;99.90;;;;;;5052395;28;20172;-74
2023/10/01 06:37:00;;;;;;;1.33;0.80;;;16.80;99.90;;;;;;5055586;28;20238;-74
2023/10/01 06:39:30;;;;;;;1.67;0.80;;;16.90;99.90;;;;;;5038585;28;20045;-74
2023/10/01 06:42:18;;;;;;;1.70;1.02;;;16.90;99.90;;;;;;5040383;28;20072;-74
2023/10/01 06:44:50;;;;;;;1.75;0.93;;;17.00;89.90;;;;;;5048009;28;20107;-74
2023/10/01 06:47:17;;;;;;;1.10;0.70;;;17.00;13.00;;;;;;5041221;28;20048;-74
2023/10/01 06:49:57;;;;;;;1.88;1.20;;;17.00;1.00;;;;;;5056341;28;20304;-74
2023/10/01 06:52:26;;;;;;;1.90;1.08;;;17.10;1.00;;;;;;5022389;28;20045;-74
2023/10/01 06:54:57;;;;;;;2.03;1.05;;;17.10;1.00;;;;;;5054636;28;20313;-74
2023/10/01 06:57:28;;;;;;;2.28;1.27;;;17.20;99.90;;;;;;5039577;28;20224;-75
2023/10/01 06:59:56;;;;;;;1.92;1.10;;;17.20;99.90;;;;;;5040681;28;20049;-74
2023/10/01 07:02:27;;;;;;;1.98;1.13;;;17.30;99.90;;;;;;5038043;28;20119;-74
2023/10/01 07:04:58;;;;;;;1.63;1.10;;;17.40;99.90;;;;;;5033686;28;20045;-74
2023/10/01 07:07:40;;;;;;;1.85;1.15;;;17.40;99.90;;;;;;5047563;28;20311;-74
2023/10/01 07:10:11;;;;;;;2.05;1.20;;;17.50;99.90;;;;;;5026121;28;20456;-74
2023/10/01 07:12:53;;;;;;;2.45;1.60;;;17.60;99.90;;;;;;5039348;28;20209;-74
2023/10/01 07:15:21;;;;;;;3.17;1.63;;;17.60;99.90;;;;;;5051220;28;20072;-74
2023/10/01 07:17:47;;;;;;;2.42;1.55;;;17.70;70.10;;;;;;5039677;28;20132;-74
2023/10/01 07:20:24;;;;;;;2.25;1.30;;;17.80;1.00;;;;;;5037247;28;20570;-74
2023/10/01 07:22:51;;;;;;;1.63;1.02;;;17.90;1.00;;;;;;5052683;28;20068;-74
2023/10/01 07:25:43;;;;;;;2.08;1.35;;;18.00;99.90;;;;;;5021231;28;20426;-74
2023/10/01 07:28:13;;;;;;;1.98;1.13;;;18.00;99.90;;;;;;5038091;28;20060;-74
2023/10/01 07:30:51;;;;;;;2.50;1.50;;;18.10;99.90;;;;;;5053997;28;20559;-74
2023/10/01 07:33:20;;;;;;;2.15;1.50;;;18.20;20.20;;;;;;5052932;28;20049;-74
2023/10/01 07:36:23;;;;;;;1.83;1.08;;;18.20;1.00;;;;;;5038125;28;20151;-75
2023/10/01 07:38:48;;;;;;;2.35;1.30;;;18.30;1.00;;;;;;5036966;28;20071;-74
2023/10/01 07:41:16;;;;;;;1.92;1.27;;;18.40;99.90;;;;;;5037694;28;20053;-75
2023/10/01 07:43:45;;;;;;;2.10;1.20;;;18.40;9.80;;;;;;5053503;28;20057;-74
2023/10/01 07:46:14;;;;;;;2.30;1.60;;;18.50;1.00;;;;;;5039028;28;20120;-74
2023/10/01 07:48:47;;;;;;;2.20;1.30;;;18.60;99.90;;;;;;5037059;28;20572;-74
2023/10/01 07:51:26;;;;;;;1.98;1.17;;;18.60;99.90;;;;;;5053706;28;20247;-75
2023/10/01 07:53:53;;;;;;;2.45;1.25;;;18.70;24.80;;;;;;5031539;28;20137;-74
2023/10/01 07:56:21;;;;;;;2.70;1.50;;;18.70;1.00;;;;;;5039055;28;20053;-74
2023/10/01 07:59:16;;;;;;;2.15;1.40;;;18.80;1.00;;;;;;5040864;28;20049;-75
2023/10/01 08:01:45;;;;;;;1.42;0.93;;;18.80;99.90;;;;;;5056753;28;20212;-75
2023/10/01 08:07:06;;;;;;;2.00;1.20;;;19.10;35.50;;;;;;5041365;28;20049;-75
2023/10/01 08:09:33;;;;;;;1.70;1.10;;;19.10;99.90;;;;;;5041390;28;20049;-75
2023/10/01 08:12:05;;;;;;;2.00;1.17;;;19.30;99.90;;;;;;5041583;28;20053;-75
2023/10/01 08:14:33;;;;;;;2.53;1.38;;;19.40;1.00;;;;;;5051598;28;20475;-75
2023/10/01 08:17:05;;;;;;;1.58;0.98;;;19.40;99.90;;;;;;5057539;28;20056;-75
2023/10/01 08:20:14;;;;;;;2.92;1.17;;;19.50;1.00;;;;;;5042709;28;20045;-74
2023/10/01 08:22:23;;;;;;;1.90;1.05;;;19.60;99.90;;;;;;5041798;28;20056;-74
2023/10/01 08:25:08;;;;;;;1.80;1.30;;;19.80;1.00;;;;;;5040870;28;20052;-75
2023/10/01 08:28:07;;;;;;;1.80;1.20;;;20.00;99.90;;;;;;5042116;28;20124;-74
2023/10/01 08:30:38;;;;;;;2.58;1.33;;;20.20;99.90;;;;;;5037539;28;20351;-74
2023/10/01 08:33:19;;;;;;;2.75;1.50;;;20.40;99.90;;;;;;5040531;28;20048;-74
2023/10/01 08:36:01;;;;;;;1.90;1.30;;;20.70;99.90;;;;;;5054344;28;20442;-74
2023/10/01 08:38:34;;;;;;;1.67;1.10;;;20.80;99.90;;;;;;5054169;28;20053;-74
2023/10/01 08:41:03;;;;;;;2.78;1.50;;;20.90;99.90;;;;;;5056041;28;20049;-74
2023/10/01 08:43:36;;;;;;;2.30;1.33;;;21.00;99.90;;;;;;5055159;28;20045;-74
2023/10/01 08:46:15;;;;;;;2.00;1.27;;;21.00;95.80;;;;;;5027884;28;20049;-74
2023/10/01 08:48:43;;;;;;;1.88;1.35;;;21.10;89.40;;;;;;5029447;28;20243;-74
2023/10/01 08:51:16;;;;;;;2.50;1.42;;;21.10;87.50;;;;;;5039941;28;20430;-74
2023/10/01 08:53:43;;;;;;;2.67;1.60;;;20.90;76.70;;;;;;5037301;28;20080;-74
2023/10/01 08:56:32;;;;;;;2.00;1.42;;;20.90;81.90;;;;;;5036973;28;20072;-74
2023/10/01 08:59:23;;;;;;;2.60;1.50;;;20.90;93.60;;;;;;5039810;28;20149;-74
2023/10/01 09:01:52;;;;;;;3.55;2.20;;;20.90;82.00;;;;;;5053923;28;20161;-74
2023/10/01 09:04:44;;;;;;;3.10;1.60;;;20.80;81.60;;;;;;5039988;28;20431;-74
2023/10/01 09:07:18;;;;;;;3.10;1.83;;;20.80;82.50;;;;;;5041405;28;20075;-74
2023/10/01 09:10:05;;;;;;;2.95;1.75;;;20.80;82.30;;;;;;5038892;28;20053;-74
2023/10/01 09:12:45;;;;;;;2.53;1.67;;;20.80;85.50;;;;;;5041269;28;20107;-74
2023/10/01 09:15:43;;;;;;;2.47;1.42;;;20.90;75.60;;;;;;5041195;28;20411;-73
2023/10/01 09:18:11;;;;;;;2.75;1.80;;;21.10;68.50;;;;;;5044369;28;20045;-74
2023/10/01 09:23:55;;;;;;;3.45;1.75;;;21.20;55.20;;;;;;5046216;28;20049;-74
2023/10/01 09:26:37;;;;;;;2.40;1.50;;;21.20;46.70;;;;;;5039043;28;20076;-74
2023/10/01 09:29:13;;;;;;;2.85;1.48;;;21.40;35.80;;;;;;5030862;28;20132;-74
2023/10/01 09:32:08;;;;;;;1.92;1.42;;;21.40;36.40;;;;;;5039810;28;20053;-74
2023/10/01 09:34:34;;;;;;;2.38;1.63;;;21.30;37.80;;;;;;5039778;28;20469;-74
2023/10/01 09:37:11;;;;;;;2.85;1.65;;;21.40;42.40;;;;;;5035914;28;20057;-74
2023/10/01 09:39:41;;;;;;;1.85;1.17;;;21.50;35.10;;;;;;5025358;28;20195;-74
2023/10/01 09:42:25;;;;;;;1.52;1.20;;;21.60;35.50;;;;;;5039133;28;20425;-74
2023/10/01 09:44:53;;;;;;;2.58;1.60;;;21.70;23.80;;;;;;5050904;28;20084;-74
2023/10/01 09:47:24;;;;;;;2.15;1.35;;;21.80;11.40;;;;;;5036594;28;20072;-74
2023/10/01 09:49:53;;;;;;;2.38;1.58;;;21.90;6.30;;;;;;5054233;28;20049;-74
2023/10/01 09:52:48;;;;;;;1.90;1.17;;;21.90;7.30;;;;;;5031336;28;20049;-75
2023/10/01 09:55:26;;;;;;;2.47;1.77;;;22.00;1.00;;;;;;5037410;28;20059;-74
2023/10/01 09:57:54;;;;;;;2.53;1.63;;;22.00;1.00;;;;;;5040488;28;20494;-74
2023/10/01 10:00:39;;;;;;;3.40;1.98;;;22.00;1.00;;;;;;5035287;28;20045;-74
2023/10/01 10:03:11;;;;;;;2.10;1.50;;;22.00;1.00;;;;;;5035562;28;20216;-73
2023/10/01 10:05:42;;;;;;;2.08;1.20;;;22.00;1.00;;;;;;5054027;28;20112;-74
2023/10/01 10:08:42;;;;;;;2.90;1.50;;;22.20;1.00;;;;;;5037568;28;20132;-73
2023/10/01 10:11:06;;;;;;;3.75;1.50;;;22.30;1.00;;;;;;5049900;28;20060;-74
2023/10/01 10:13:45;;;;;;;2.00;1.40;;;22.40;1.00;;;;;;5050244;28;20056;-74
2023/10/01 10:16:30;;;;;;;3.20;1.60;;;22.30;1.00;;;;;;5054828;28;20513;-74
2023/10/01 10:19:08;;;;;;;2.38;1.67;;;22.40;1.00;;;;;;5037425;28;20552;-74
2023/10/01 10:22:11;;;;;;;2.42;1.60;;;22.50;1.00;;;;;;5021043;28;20056;-74
2023/10/01 10:24:48;;;;;;;1.47;1.10;;;22.50;1.00;;;;;;4978368;28;20060;-74
2023/10/01 10:27:24;;;;;;;2.63;1.60;;;22.50;1.00;;;;;;4998168;28;20056;-74
2023/10/01 10:30:00;;;;;;;2.45;1.45;;;22.50;1.00;;;;;;5020231;28;20118;-74
2023/10/01 10:32:44;;;;;;;2.38;1.60;;;22.40;1.00;;;;;;5019765;28;20083;-74
2023/10/01 10:35:14;;;;;;;2.00;1.30;;;22.40;1.00;;;;;;5036682;28;20048;-74
2023/10/01 10:37:45;;;;;;;2.47;1.52;;;22.50;1.00;;;;;;5038148;28;20548;-74
2023/10/01 10:42:40;;;;;;;1.92;1.40;;;22.30;1.00;;;;;;5054804;28;20566;-74
2023/10/01 10:45:19;;;;;;;2.30;1.52;;;22.40;1.00;;;;;;5053415;28;20178;-75
2023/10/01 10:47:58;;;;;;;2.05;1.40;;;22.30;1.00;;;;;;5038436;28;20064;-74
2023/10/01 10:50:50;;;;;;;1.70;1.10;;;22.30;1.00;;;;;;5039785;28;20126;-74
2023/10/01 10:53:37;;;;;;;2.45;1.42;;;22.30;1.00;;;;;;5051571;28;20064;-74
2023/10/01 10:56:09;;;;;;;2.63;1.70;;;22.30;1.00;;;;;;5039842;28;20068;-74
2023/10/01 10:58:45;;;;;;;2.75;1.75;;;22.50;1.00;;;;;;5053718;28;20052;-74
2023/10/01 11:01:22;;;;;;;2.67;1.50;;;22.60;1.00;;;;;;5039334;28;20084;-74
2023/10/01 11:03:51;;;;;;;2.65;1.75;;;22.70;1.00;;;;;;5039204;28;20055;-75
2023/10/01 11:06:21;;;;;;;2.63;1.70;;;22.70;1.00;;;;;;5039129;28;20405;-75
2023/10/01 11:08:52;;;;;;;2.60;1.80;;;22.80;1.00;;;;;;5038576;28;20111;-74
2023/10/01 11:11:28;;;;;;;1.83;1.20;;;23.00;1.00;;;;;;5054318;28;20075;-73
2023/10/01 11:14:15;;;;;;;3.33;1.80;;;23.30;1.00;;;;;;5037955;28;20148;-75
2023/10/01 11:16:47;;;;;;;2.92;1.90;;;23.50;1.00;;;;;;5018513;28;20055;-74
2023/10/01 11:19:16;;;;;;;3.72;2.00;;;23.60;1.00;;;;;;5018365;28;20450;-74
2023/10/01 11:21:55;;;;;;;3.72;2.42;;;23.70;1.00;;;;;;5029102;28;20052;-75
2023/10/01 11:24:29;;;;;;;4.93;2.55;;;23.50;1.00;;;;;;5036044;28;20049;-74
2023/10/01 11:27:24;;;;;;;3.60;2.22;;;23.40;1.00;;;;;;5037424;28;20056;-74
2023/10/01 11:30:13;;;;;;;3.40;2.35;;;23.50;1.00;;;;;;5052025;28;20572;-75
2023/10/01 11:32:58;;;;;;;5.13;2.72;;;23.60;1.00;;;;;;5026983;28;20123;-75
2023/10/01 11:35:33;;;;;;;4.47;2.70;;;23.70;1.00;;;;;;5041893;28;20057;-74
2023/10/01 11:38:22;;;;;;;3.70;2.20;;;23.80;1.00;;;;;;5057485;28;20285;-74
2023/10/01 11:41:09;;;;;;;3.38;2.10;;;24.00;1.00;;;;;;5043481;28;20063;-74
2023/10/01 11:44:00;;;;;;;3.45;2.30;;;24.20;1.00;;;;;;5051671;28;20057;-74
2023/10/01 11:46:57;;;;;;;2.80;1.98;;;24.30;1.00;;;;;;5021248;28;20336;-75
2023/10/01 11:50:06;;;;;;;3.78;2.10;;;24.30;1.00;;;;;;5041328;28;20498;-74
2023/10/01 11:52:21;;;;;;;2.63;1.77;;;24.20;1.00;;;;;;5038557;28;20680;-74
2023/10/01 11:54:54;;;;;;;2.60;1.87;;;24.10;1.00;;;;;;5039885;28;20048;-74
2023/10/01 11:57:22;;;;;;;2.72;1.70;;;24.00;1.00;;;;;;5056565;28;20057;-74
2023/10/01 11:59:56;;;;;;;2.55;1.63;;;24.10;1.00;;;;;;5057773;28;20441;-74
2023/10/01 12:02:29;;;;;;;3.65;1.83;;;24.30;1.00;;;;;;5057106;28;20479;-74
2023/10/01 12:04:57;;;;;;;2.22;1.27;;;24.30;1.00;;;;;;5056510;28;20070;-74
2023/10/01 12:07:43;;;;;;;2.75;1.80;;;24.40;1.00;;;;;;5057262;28;20143;-74
2023/10/01 12:10:31;;;;;;;3.08;1.75;;;24.30;1.00;;;;;;5038870;28;20045;-74
2023/10/01 12:13:01;;;;;;;2.47;1.40;;;24.30;1.00;;;;;;5040784;28;20530;-74
2023/10/01 12:15:35;;;;;;;2.33;1.40;;;24.40;1.00;;;;;;5056246;28;20041;-74
2023/10/01 12:18:13;;;;;;;1.95;1.23;;;24.50;1.00;;;;;;5056756;28;20057;-75
2023/10/01 12:20:47;;;;;;;2.50;1.58;;;24.60;1.00;;;;;;5034407;28;20053;-75
2023/10/01 12:23:15;;;;;;;2.72;1.80;;;24.60;1.00;;;;;;4992935;28;20053;-74
2023/10/01 12:25:47;;;;;;;2.60;1.50;;;24.40;1.00;;;;;;5055969;28;20053;-74
2023/10/01 12:28:24;;;;;;;;;;;24.50;1.00;;;;;;5032717;28;20507;-74
2023/10/01 12:30:58;;;;;;;2.40;1.50;;;24.40;1.00;;;;;;5051993;28;19925;-74
2023/10/01 12:33:38;;;;;;;3.03;1.70;;;24.40;1.00;;;;;;5005718;28;20092;-76
2023/10/01 12:39:16;;;;;;;2.58;1.60;;;24.40;1.00;;;;;;5040138;28;20418;-75
2023/10/01 12:44:34;;;;;;;2.63;1.70;;;24.20;1.00;;;;;;5039985;28;20139;-75
2023/10/01 12:47:02;;;;;;;3.13;2.00;;;24.10;1.00;;;;;;5032912;28;20342;-74
2023/10/01 12:49:34;;;;;;;2.92;1.73;;;24.10;1.00;;;;;;5012528;28;20041;-75
2023/10/01 12:52:08;;;;;;;2.58;1.92;;;24.00;1.00;;;;;;5036377;28;20406;-73
2023/10/01 12:54:36;;;;;;;2.50;1.73;;;24.00;1.00;;;;;;5048597;28;20053;-76
2023/10/01 12:57:09;;;;;;;2.78;1.90;;;23.90;1.00;;;;;;5056684;28;20497;-75
2023/10/01 13:05:19;;;;;;;3.10;1.85;;;24.00;1.00;;;;;;5055942;28;20056;-75
2023/10/01 13:07:50;;;;;;;2.33;1.73;;;24.20;1.00;;;;;;5052660;28;20056;-76
2023/10/01 13:10:18;;;;;;;2.08;1.48;;;24.20;1.00;;;;;;5018561;28;20079;-75
2023/10/01 13:12:59;;;;;;;2.90;1.80;;;24.40;1.00;;;;;;5019903;28;20128;-74
2023/10/01 13:15:39;;;;;;;3.20;2.05;;;24.30;1.00;;;;;;5038414;28;20511;-76
2023/10/01 13:18:17;;;;;;;2.67;1.63;;;24.40;1.00;;;;;;5054924;28;20140;-75
2023/10/01 13:23:24;;;;;;;2.63;2.00;;;24.50;1.00;;;;;;5039559;28;20092;-74
2023/10/01 13:26:06;;;;;;;2.65;1.88;;;24.60;1.00;;;;;;5041722;28;20080;-73
2023/10/01 14:09:58;;;;;;;2.17;1.42;;;25.60;1.00;;;;;;5038210;28;20064;-74
2023/10/01 14:15:24;;;;;;;2.83;1.83;;;25.40;1.00;;;;;;5039003;28;20088;-75
2023/10/01 14:18:00;;;;;;;2.83;1.85;;;25.30;1.00;;;;;;5117733;27;20333;-74
2023/10/01 14:23:28;;;;;;;3.25;2.05;;;25.00;1.00;;;;;;5100088;28;20043;-74
2023/10/01 14:26:10;;;;;;;2.83;1.73;;;25.00;1.00;;;;;;5084416;28;20221;-75
2023/10/01 14:28:39;;;;;;;3.45;2.25;;;25.00;1.00;;;;;;5095812;28;20083;-75
2023/10/01 14:31:06;;;;;;;3.38;1.98;;;25.00;1.00;;;;;;5082278;28;20330;-74
2023/10/01 14:33:34;;;;;;;2.30;1.50;;;25.10;1.00;;;;;;5098996;28;20112;-74
2023/10/01 14:36:04;;;;;;;2.55;1.77;;;25.10;1.00;;;;;;5117554;28;20500;-75
2023/10/01 14:38:40;;;;;;;2.03;1.40;;;25.30;1.00;;;;;;5115910;28;20636;-75
2023/10/01 14:41:10;;;;;;;2.75;1.60;;;25.60;1.00;;;;;;5116091;28;20047;-74
2023/10/01 14:43:41;;;;;;;2.60;1.85;;;25.90;1.00;;;;;;5117391;27;20048;-74
2023/10/01 14:46:13;;;;;;;2.13;1.60;;;26.30;1.00;;;;;;5095266;28;20048;-74
2023/10/01 14:48:46;;;;;;;1.80;1.23;;;26.70;1.00;;;;;;5093970;28;20143;-75
2023/10/01 14:51:17;;;;;;;;;;;27.20;1.00;;;;;;5118144;27;20450;-74
2023/10/01 14:53:43;;;;;;;2.78;2.10;;;27.90;1.00;;;;;;5115157;28;19969;-74
2023/10/01 14:56:11;;;;;;;2.80;1.80;;;28.20;1.00;;;;;;5111908;28;20377;-74
2023/10/01 14:58:39;;;;;;;2.97;1.98;;;28.20;1.00;;;;;;5094426;28;20568;-75